<?xml version="1.0" encoding="UTF-8" ?>
<gpx version="1.1" xmlns:xsi="http://www.w3.org/2001/XMLSchema-instance" 
    xmlns="http://www.topografix.com/GPX/1/1" 
    xsi:schemaLocation="http://www.topografix.com/GPX/1/1 http://www.topografix.com/GPX/1/1/gpx.xsd" 
    creator="Openrunner - https://www.openrunner.com" >	<trk>
						<name>5-Belvédère_du_Viso</name>
						<trkseg>
					<trkpt lat="44.758200" lon="6.992710">
						<ele>1697</ele>
						<time>2022-01-06T15:39:32Z</time>
					</trkpt>
					<trkpt lat="44.757910" lon="6.992750">
						<ele>1699</ele>
						<time>2022-01-06T15:40:11Z</time>
					</trkpt>
					<trkpt lat="44.757590" lon="6.992690">
						<ele>1700</ele>
						<time>2022-01-06T15:40:54Z</time>
					</trkpt>
					<trkpt lat="44.757270" lon="6.992630">
						<ele>1700</ele>
						<time>2022-01-06T15:41:37Z</time>
					</trkpt>
					<trkpt lat="44.756890" lon="6.992550">
						<ele>1700</ele>
						<time>2022-01-06T15:42:28Z</time>
					</trkpt>
					<trkpt lat="44.756510" lon="6.992470">
						<ele>1701</ele>
						<time>2022-01-06T15:43:20Z</time>
					</trkpt>
					<trkpt lat="44.756150" lon="6.992380">
						<ele>1703</ele>
						<time>2022-01-06T15:44:08Z</time>
					</trkpt>
					<trkpt lat="44.755810" lon="6.992370">
						<ele>1705</ele>
						<time>2022-01-06T15:44:54Z</time>
					</trkpt>
					<trkpt lat="44.755500" lon="6.992470">
						<ele>1706</ele>
						<time>2022-01-06T15:45:36Z</time>
					</trkpt>
					<trkpt lat="44.755170" lon="6.992560">
						<ele>1708</ele>
						<time>2022-01-06T15:46:21Z</time>
					</trkpt>
					<trkpt lat="44.754840" lon="6.992660">
						<ele>1711</ele>
						<time>2022-01-06T15:47:06Z</time>
					</trkpt>
					<trkpt lat="44.754510" lon="6.992780">
						<ele>1714</ele>
						<time>2022-01-06T15:47:52Z</time>
					</trkpt>
					<trkpt lat="44.754120" lon="6.992870">
						<ele>1716</ele>
						<time>2022-01-06T15:48:44Z</time>
					</trkpt>
					<trkpt lat="44.753830" lon="6.992970">
						<ele>1719</ele>
						<time>2022-01-06T15:49:24Z</time>
					</trkpt>
					<trkpt lat="44.753690" lon="6.993120">
						<ele>1721</ele>
						<time>2022-01-06T15:49:48Z</time>
					</trkpt>
					<trkpt lat="44.753510" lon="6.993190">
						<ele>1722</ele>
						<time>2022-01-06T15:50:13Z</time>
					</trkpt>
					<trkpt lat="44.753240" lon="6.993230">
						<ele>1723</ele>
						<time>2022-01-06T15:50:49Z</time>
					</trkpt>
					<trkpt lat="44.752920" lon="6.993410">
						<ele>1723</ele>
						<time>2022-01-06T15:51:35Z</time>
					</trkpt>
					<trkpt lat="44.752590" lon="6.993570">
						<ele>1724</ele>
						<time>2022-01-06T15:52:21Z</time>
					</trkpt>
					<trkpt lat="44.752260" lon="6.993680">
						<ele>1725</ele>
						<time>2022-01-06T15:53:07Z</time>
					</trkpt>
					<trkpt lat="44.752000" lon="6.993890">
						<ele>1726</ele>
						<time>2022-01-06T15:53:47Z</time>
					</trkpt>
					<trkpt lat="44.751770" lon="6.994170">
						<ele>1727</ele>
						<time>2022-01-06T15:54:27Z</time>
					</trkpt>
					<trkpt lat="44.751420" lon="6.994400">
						<ele>1729</ele>
						<time>2022-01-06T15:55:19Z</time>
					</trkpt>
					<trkpt lat="44.750950" lon="6.994610">
						<ele>1730</ele>
						<time>2022-01-06T15:56:25Z</time>
					</trkpt>
					<trkpt lat="44.750350" lon="6.994910">
						<ele>1731</ele>
						<time>2022-01-06T15:57:49Z</time>
					</trkpt>
					<trkpt lat="44.750130" lon="6.994930">
						<ele>1730</ele>
						<time>2022-01-06T15:58:19Z</time>
					</trkpt>
					<trkpt lat="44.749850" lon="6.994860">
						<ele>1730</ele>
						<time>2022-01-06T15:58:57Z</time>
					</trkpt>
					<trkpt lat="44.749510" lon="6.994860">
						<ele>1732</ele>
						<time>2022-01-06T15:59:42Z</time>
					</trkpt>
					<trkpt lat="44.749140" lon="6.994930">
						<ele>1734</ele>
						<time>2022-01-06T16:00:32Z</time>
					</trkpt>
					<trkpt lat="44.748780" lon="6.995030">
						<ele>1734</ele>
						<time>2022-01-06T16:01:21Z</time>
					</trkpt>
					<trkpt lat="44.748510" lon="6.995120">
						<ele>1735</ele>
						<time>2022-01-06T16:01:58Z</time>
					</trkpt>
					<trkpt lat="44.748270" lon="6.995160">
						<ele>1736</ele>
						<time>2022-01-06T16:02:30Z</time>
					</trkpt>
					<trkpt lat="44.748090" lon="6.995240">
						<ele>1738</ele>
						<time>2022-01-06T16:02:55Z</time>
					</trkpt>
					<trkpt lat="44.747860" lon="6.995340">
						<ele>1740</ele>
						<time>2022-01-06T16:03:28Z</time>
					</trkpt>
					<trkpt lat="44.747740" lon="6.995370">
						<ele>1741</ele>
						<time>2022-01-06T16:03:44Z</time>
					</trkpt>
					<trkpt lat="44.747620" lon="6.995480">
						<ele>1744</ele>
						<time>2022-01-06T16:04:03Z</time>
					</trkpt>
					<trkpt lat="44.747390" lon="6.995430">
						<ele>1745</ele>
						<time>2022-01-06T16:04:34Z</time>
					</trkpt>
					<trkpt lat="44.746990" lon="6.995340">
						<ele>1750</ele>
						<time>2022-01-06T16:05:28Z</time>
					</trkpt>
					<trkpt lat="44.746550" lon="6.995150">
						<ele>1752</ele>
						<time>2022-01-06T16:06:30Z</time>
					</trkpt>
					<trkpt lat="44.746170" lon="6.995020">
						<ele>1751</ele>
						<time>2022-01-06T16:07:22Z</time>
					</trkpt>
					<trkpt lat="44.745870" lon="6.994980">
						<ele>1753</ele>
						<time>2022-01-06T16:08:02Z</time>
					</trkpt>
					<trkpt lat="44.745610" lon="6.994890">
						<ele>1756</ele>
						<time>2022-01-06T16:08:38Z</time>
					</trkpt>
					<trkpt lat="44.745350" lon="6.994810">
						<ele>1759</ele>
						<time>2022-01-06T16:09:13Z</time>
					</trkpt>
					<trkpt lat="44.745030" lon="6.994720">
						<ele>1763</ele>
						<time>2022-01-06T16:09:57Z</time>
					</trkpt>
					<trkpt lat="44.744650" lon="6.994560">
						<ele>1765</ele>
						<time>2022-01-06T16:10:50Z</time>
					</trkpt>
					<trkpt lat="44.744270" lon="6.994430">
						<ele>1765</ele>
						<time>2022-01-06T16:11:42Z</time>
					</trkpt>
					<trkpt lat="44.743840" lon="6.994340">
						<ele>1764</ele>
						<time>2022-01-06T16:12:40Z</time>
					</trkpt>
					<trkpt lat="44.743400" lon="6.994310">
						<ele>1765</ele>
						<time>2022-01-06T16:13:39Z</time>
					</trkpt>
					<trkpt lat="44.743020" lon="6.994350">
						<ele>1770</ele>
						<time>2022-01-06T16:14:29Z</time>
					</trkpt>
					<trkpt lat="44.742470" lon="6.994290">
						<ele>1772</ele>
						<time>2022-01-06T16:15:43Z</time>
					</trkpt>
					<trkpt lat="44.742020" lon="6.994270">
						<ele>1773</ele>
						<time>2022-01-06T16:16:43Z</time>
					</trkpt>
					<trkpt lat="44.741560" lon="6.994250">
						<ele>1774</ele>
						<time>2022-01-06T16:17:45Z</time>
					</trkpt>
					<trkpt lat="44.741080" lon="6.994340">
						<ele>1778</ele>
						<time>2022-01-06T16:18:49Z</time>
					</trkpt>
					<trkpt lat="44.740550" lon="6.994460">
						<ele>1780</ele>
						<time>2022-01-06T16:20:01Z</time>
					</trkpt>
					<trkpt lat="44.740060" lon="6.994490">
						<ele>1777</ele>
						<time>2022-01-06T16:21:06Z</time>
					</trkpt>
					<trkpt lat="44.739660" lon="6.994660">
						<ele>1781</ele>
						<time>2022-01-06T16:22:02Z</time>
					</trkpt>
					<trkpt lat="44.739290" lon="6.994990">
						<ele>1780</ele>
						<time>2022-01-06T16:23:00Z</time>
					</trkpt>
					<trkpt lat="44.738830" lon="6.995450">
						<ele>1789</ele>
						<time>2022-01-06T16:24:16Z</time>
					</trkpt>
					<trkpt lat="44.738500" lon="6.995800">
						<ele>1787</ele>
						<time>2022-01-06T16:25:11Z</time>
					</trkpt>
					<trkpt lat="44.738310" lon="6.996080">
						<ele>1789</ele>
						<time>2022-01-06T16:25:48Z</time>
					</trkpt>
					<trkpt lat="44.738110" lon="6.996200">
						<ele>1791</ele>
						<time>2022-01-06T16:26:17Z</time>
					</trkpt>
					<trkpt lat="44.737900" lon="6.996350">
						<ele>1791</ele>
						<time>2022-01-06T16:26:48Z</time>
					</trkpt>
					<trkpt lat="44.737680" lon="6.996560">
						<ele>1791</ele>
						<time>2022-01-06T16:27:24Z</time>
					</trkpt>
					<trkpt lat="44.737500" lon="6.996820">
						<ele>1791</ele>
						<time>2022-01-06T16:27:58Z</time>
					</trkpt>
					<trkpt lat="44.737320" lon="6.996970">
						<ele>1793</ele>
						<time>2022-01-06T16:28:26Z</time>
					</trkpt>
					<trkpt lat="44.737260" lon="6.997270">
						<ele>1797</ele>
						<time>2022-01-06T16:28:55Z</time>
					</trkpt>
					<trkpt lat="44.736950" lon="6.997490">
						<ele>1798</ele>
						<time>2022-01-06T16:29:42Z</time>
					</trkpt>
					<trkpt lat="44.736790" lon="6.997920">
						<ele>1805</ele>
						<time>2022-01-06T16:30:28Z</time>
					</trkpt>
					<trkpt lat="44.736670" lon="6.998160">
						<ele>1807</ele>
						<time>2022-01-06T16:30:56Z</time>
					</trkpt>
					<trkpt lat="44.736450" lon="6.998330">
						<ele>1808</ele>
						<time>2022-01-06T16:31:29Z</time>
					</trkpt>
					<trkpt lat="44.736260" lon="6.998520">
						<ele>1810</ele>
						<time>2022-01-06T16:32:00Z</time>
					</trkpt>
					<trkpt lat="44.736120" lon="6.998870">
						<ele>1815</ele>
						<time>2022-01-06T16:32:38Z</time>
					</trkpt>
					<trkpt lat="44.736030" lon="6.999170">
						<ele>1819</ele>
						<time>2022-01-06T16:33:09Z</time>
					</trkpt>
					<trkpt lat="44.735900" lon="6.999160">
						<ele>1816</ele>
						<time>2022-01-06T16:33:26Z</time>
					</trkpt>
					<trkpt lat="44.735860" lon="6.998970">
						<ele>1812</ele>
						<time>2022-01-06T16:33:45Z</time>
					</trkpt>
					<trkpt lat="44.735810" lon="6.998770">
						<ele>1808</ele>
						<time>2022-01-06T16:34:05Z</time>
					</trkpt>
					<trkpt lat="44.735640" lon="6.998780">
						<ele>1808</ele>
						<time>2022-01-06T16:34:28Z</time>
					</trkpt>
					<trkpt lat="44.735440" lon="6.998850">
						<ele>1808</ele>
						<time>2022-01-06T16:34:56Z</time>
					</trkpt>
					<trkpt lat="44.735260" lon="6.998830">
						<ele>1808</ele>
						<time>2022-01-06T16:35:20Z</time>
					</trkpt>
					<trkpt lat="44.735070" lon="6.998700">
						<ele>1806</ele>
						<time>2022-01-06T16:35:48Z</time>
					</trkpt>
					<trkpt lat="44.734910" lon="6.998430">
						<ele>1806</ele>
						<time>2022-01-06T16:36:21Z</time>
					</trkpt>
					<trkpt lat="44.734880" lon="6.998270">
						<ele>1807</ele>
						<time>2022-01-06T16:36:37Z</time>
					</trkpt>
					<trkpt lat="44.734840" lon="6.998120">
						<ele>1810</ele>
						<time>2022-01-06T16:36:52Z</time>
					</trkpt>
					<trkpt lat="44.734730" lon="6.998030">
						<ele>1814</ele>
						<time>2022-01-06T16:37:09Z</time>
					</trkpt>
					<trkpt lat="44.734880" lon="6.997790">
						<ele>1812</ele>
						<time>2022-01-06T16:37:39Z</time>
					</trkpt>
					<trkpt lat="44.734600" lon="6.997850">
						<ele>1820</ele>
						<time>2022-01-06T16:38:17Z</time>
					</trkpt>
					<trkpt lat="44.734240" lon="6.997800">
						<ele>1832</ele>
						<time>2022-01-06T16:39:05Z</time>
					</trkpt>
					<trkpt lat="44.733960" lon="6.997890">
						<ele>1846</ele>
						<time>2022-01-06T16:39:44Z</time>
					</trkpt>
					<trkpt lat="44.733720" lon="6.998080">
						<ele>1856</ele>
						<time>2022-01-06T16:40:20Z</time>
					</trkpt>
					<trkpt lat="44.733580" lon="6.998360">
						<ele>1855</ele>
						<time>2022-01-06T16:40:53Z</time>
					</trkpt>
					<trkpt lat="44.733420" lon="6.998540">
						<ele>1860</ele>
						<time>2022-01-06T16:41:20Z</time>
					</trkpt>
					<trkpt lat="44.733320" lon="6.998760">
						<ele>1860</ele>
						<time>2022-01-06T16:41:45Z</time>
					</trkpt>
					<trkpt lat="44.733170" lon="6.998940">
						<ele>1861</ele>
						<time>2022-01-06T16:42:11Z</time>
					</trkpt>
					<trkpt lat="44.732960" lon="6.998890">
						<ele>1870</ele>
						<time>2022-01-06T16:42:40Z</time>
					</trkpt>
					<trkpt lat="44.732780" lon="6.998700">
						<ele>1880</ele>
						<time>2022-01-06T16:43:10Z</time>
					</trkpt>
					<trkpt lat="44.732630" lon="6.998630">
						<ele>1886</ele>
						<time>2022-01-06T16:43:31Z</time>
					</trkpt>
					<trkpt lat="44.732480" lon="6.998780">
						<ele>1889</ele>
						<time>2022-01-06T16:43:55Z</time>
					</trkpt>
					<trkpt lat="44.732490" lon="6.999050">
						<ele>1885</ele>
						<time>2022-01-06T16:44:21Z</time>
					</trkpt>
					<trkpt lat="44.732340" lon="6.999160">
						<ele>1887</ele>
						<time>2022-01-06T16:44:44Z</time>
					</trkpt>
					<trkpt lat="44.732150" lon="6.999100">
						<ele>1892</ele>
						<time>2022-01-06T16:45:10Z</time>
					</trkpt>
					<trkpt lat="44.731990" lon="6.999060">
						<ele>1896</ele>
						<time>2022-01-06T16:45:31Z</time>
					</trkpt>
					<trkpt lat="44.731810" lon="6.999080">
						<ele>1900</ele>
						<time>2022-01-06T16:45:55Z</time>
					</trkpt>
					<trkpt lat="44.731700" lon="6.999320">
						<ele>1899</ele>
						<time>2022-01-06T16:46:22Z</time>
					</trkpt>
					<trkpt lat="44.731500" lon="6.999570">
						<ele>1897</ele>
						<time>2022-01-06T16:46:58Z</time>
					</trkpt>
					<trkpt lat="44.731260" lon="6.999730">
						<ele>1897</ele>
						<time>2022-01-06T16:47:34Z</time>
					</trkpt>
					<trkpt lat="44.731150" lon="6.999720">
						<ele>1898</ele>
						<time>2022-01-06T16:47:48Z</time>
					</trkpt>
					<trkpt lat="44.730970" lon="6.999890">
						<ele>1897</ele>
						<time>2022-01-06T16:48:17Z</time>
					</trkpt>
					<trkpt lat="44.730730" lon="7.000040">
						<ele>1899</ele>
						<time>2022-01-06T16:48:52Z</time>
					</trkpt>
					<trkpt lat="44.730550" lon="7.000220">
						<ele>1901</ele>
						<time>2022-01-06T16:49:22Z</time>
					</trkpt>
					<trkpt lat="44.730470" lon="7.000350">
						<ele>1901</ele>
						<time>2022-01-06T16:49:38Z</time>
					</trkpt>
					<trkpt lat="44.730380" lon="7.000800">
						<ele>1899</ele>
						<time>2022-01-06T16:50:22Z</time>
					</trkpt>
					<trkpt lat="44.730240" lon="7.001020">
						<ele>1902</ele>
						<time>2022-01-06T16:50:50Z</time>
					</trkpt>
					<trkpt lat="44.730090" lon="7.001050">
						<ele>1904</ele>
						<time>2022-01-06T16:51:11Z</time>
					</trkpt>
					<trkpt lat="44.729930" lon="7.001110">
						<ele>1906</ele>
						<time>2022-01-06T16:51:33Z</time>
					</trkpt>
					<trkpt lat="44.729850" lon="7.001300">
						<ele>1908</ele>
						<time>2022-01-06T16:51:54Z</time>
					</trkpt>
					<trkpt lat="44.729970" lon="7.001630">
						<ele>1909</ele>
						<time>2022-01-06T16:52:29Z</time>
					</trkpt>
					<trkpt lat="44.729740" lon="7.001690">
						<ele>1910</ele>
						<time>2022-01-06T16:53:00Z</time>
					</trkpt>
					<trkpt lat="44.729510" lon="7.001790">
						<ele>1912</ele>
						<time>2022-01-06T16:53:32Z</time>
					</trkpt>
					<trkpt lat="44.729380" lon="7.001980">
						<ele>1913</ele>
						<time>2022-01-06T16:53:57Z</time>
					</trkpt>
					<trkpt lat="44.729250" lon="7.002260">
						<ele>1912</ele>
						<time>2022-01-06T16:54:29Z</time>
					</trkpt>
					<trkpt lat="44.729300" lon="7.002360">
						<ele>1913</ele>
						<time>2022-01-06T16:54:40Z</time>
					</trkpt>
					<trkpt lat="44.729150" lon="7.002610">
						<ele>1913</ele>
						<time>2022-01-06T16:55:11Z</time>
					</trkpt>
					<trkpt lat="44.729040" lon="7.002920">
						<ele>1919</ele>
						<time>2022-01-06T16:55:44Z</time>
					</trkpt>
					<trkpt lat="44.729030" lon="7.003080">
						<ele>1922</ele>
						<time>2022-01-06T16:56:00Z</time>
					</trkpt>
					<trkpt lat="44.729140" lon="7.003380">
						<ele>1929</ele>
						<time>2022-01-06T16:56:32Z</time>
					</trkpt>
					<trkpt lat="44.729160" lon="7.003540">
						<ele>1935</ele>
						<time>2022-01-06T16:56:47Z</time>
					</trkpt>
					<trkpt lat="44.728820" lon="7.004060">
						<ele>1943</ele>
						<time>2022-01-06T16:57:54Z</time>
					</trkpt>
					<trkpt lat="44.728430" lon="7.004530">
						<ele>1947</ele>
						<time>2022-01-06T16:59:02Z</time>
					</trkpt>
					<trkpt lat="44.728240" lon="7.004810">
						<ele>1951</ele>
						<time>2022-01-06T16:59:39Z</time>
					</trkpt>
					<trkpt lat="44.728130" lon="7.005030">
						<ele>1955</ele>
						<time>2022-01-06T17:00:05Z</time>
					</trkpt>
					<trkpt lat="44.727970" lon="7.005240">
						<ele>1957</ele>
						<time>2022-01-06T17:00:34Z</time>
					</trkpt>
					<trkpt lat="44.727790" lon="7.005440">
						<ele>1957</ele>
						<time>2022-01-06T17:01:04Z</time>
					</trkpt>
					<trkpt lat="44.727610" lon="7.005660">
						<ele>1957</ele>
						<time>2022-01-06T17:01:36Z</time>
					</trkpt>
					<trkpt lat="44.727450" lon="7.005890">
						<ele>1959</ele>
						<time>2022-01-06T17:02:07Z</time>
					</trkpt>
					<trkpt lat="44.727250" lon="7.006070">
						<ele>1961</ele>
						<time>2022-01-06T17:02:38Z</time>
					</trkpt>
					<trkpt lat="44.727030" lon="7.006260">
						<ele>1964</ele>
						<time>2022-01-06T17:03:13Z</time>
					</trkpt>
					<trkpt lat="44.726860" lon="7.006360">
						<ele>1965</ele>
						<time>2022-01-06T17:03:37Z</time>
					</trkpt>
					<trkpt lat="44.726680" lon="7.006270">
						<ele>1959</ele>
						<time>2022-01-06T17:04:03Z</time>
					</trkpt>
					<trkpt lat="44.726460" lon="7.006280">
						<ele>1957</ele>
						<time>2022-01-06T17:04:32Z</time>
					</trkpt>
					<trkpt lat="44.726280" lon="7.006440">
						<ele>1958</ele>
						<time>2022-01-06T17:05:01Z</time>
					</trkpt>
					<trkpt lat="44.726170" lon="7.006710">
						<ele>1964</ele>
						<time>2022-01-06T17:05:30Z</time>
					</trkpt>
					<trkpt lat="44.726070" lon="7.007130">
						<ele>1974</ele>
						<time>2022-01-06T17:06:12Z</time>
					</trkpt>
					<trkpt lat="44.726000" lon="7.007230">
						<ele>1976</ele>
						<time>2022-01-06T17:06:26Z</time>
					</trkpt>
					<trkpt lat="44.725900" lon="7.007210">
						<ele>1974</ele>
						<time>2022-01-06T17:06:39Z</time>
					</trkpt>
					<trkpt lat="44.725770" lon="7.007160">
						<ele>1970</ele>
						<time>2022-01-06T17:06:57Z</time>
					</trkpt>
					<trkpt lat="44.725620" lon="7.007180">
						<ele>1968</ele>
						<time>2022-01-06T17:07:17Z</time>
					</trkpt>
					<trkpt lat="44.725470" lon="7.007240">
						<ele>1967</ele>
						<time>2022-01-06T17:07:38Z</time>
					</trkpt>
					<trkpt lat="44.725340" lon="7.007390">
						<ele>1968</ele>
						<time>2022-01-06T17:08:00Z</time>
					</trkpt>
					<trkpt lat="44.725210" lon="7.007590">
						<ele>1969</ele>
						<time>2022-01-06T17:08:26Z</time>
					</trkpt>
					<trkpt lat="44.725070" lon="7.007810">
						<ele>1970</ele>
						<time>2022-01-06T17:08:54Z</time>
					</trkpt>
					<trkpt lat="44.724940" lon="7.007850">
						<ele>1970</ele>
						<time>2022-01-06T17:09:12Z</time>
					</trkpt>
					<trkpt lat="44.724810" lon="7.007920">
						<ele>1973</ele>
						<time>2022-01-06T17:09:30Z</time>
					</trkpt>
					<trkpt lat="44.724780" lon="7.008310">
						<ele>1976</ele>
						<time>2022-01-06T17:10:08Z</time>
					</trkpt>
					<trkpt lat="44.724760" lon="7.008710">
						<ele>1981</ele>
						<time>2022-01-06T17:10:46Z</time>
					</trkpt>
					<trkpt lat="44.724610" lon="7.008930">
						<ele>1980</ele>
						<time>2022-01-06T17:11:15Z</time>
					</trkpt>
					<trkpt lat="44.724450" lon="7.009170">
						<ele>1978</ele>
						<time>2022-01-06T17:11:46Z</time>
					</trkpt>
					<trkpt lat="44.724330" lon="7.009470">
						<ele>1980</ele>
						<time>2022-01-06T17:12:18Z</time>
					</trkpt>
					<trkpt lat="44.724250" lon="7.009670">
						<ele>1980</ele>
						<time>2022-01-06T17:12:40Z</time>
					</trkpt>
					<trkpt lat="44.724120" lon="7.009950">
						<ele>1982</ele>
						<time>2022-01-06T17:13:12Z</time>
					</trkpt>
					<trkpt lat="44.724000" lon="7.010240">
						<ele>1984</ele>
						<time>2022-01-06T17:13:44Z</time>
					</trkpt>
					<trkpt lat="44.723910" lon="7.010520">
						<ele>1985</ele>
						<time>2022-01-06T17:14:13Z</time>
					</trkpt>
					<trkpt lat="44.723830" lon="7.010800">
						<ele>1985</ele>
						<time>2022-01-06T17:14:41Z</time>
					</trkpt>
					<trkpt lat="44.723710" lon="7.011080">
						<ele>1986</ele>
						<time>2022-01-06T17:15:12Z</time>
					</trkpt>
					<trkpt lat="44.723620" lon="7.011340">
						<ele>1988</ele>
						<time>2022-01-06T17:15:40Z</time>
					</trkpt>
					<trkpt lat="44.723540" lon="7.011610">
						<ele>1989</ele>
						<time>2022-01-06T17:16:08Z</time>
					</trkpt>
					<trkpt lat="44.723400" lon="7.011730">
						<ele>1986</ele>
						<time>2022-01-06T17:16:29Z</time>
					</trkpt>
					<trkpt lat="44.723230" lon="7.011870">
						<ele>1985</ele>
						<time>2022-01-06T17:16:56Z</time>
					</trkpt>
					<trkpt lat="44.723000" lon="7.012060">
						<ele>1986</ele>
						<time>2022-01-06T17:17:31Z</time>
					</trkpt>
					<trkpt lat="44.722760" lon="7.012360">
						<ele>1988</ele>
						<time>2022-01-06T17:18:14Z</time>
					</trkpt>
					<trkpt lat="44.722470" lon="7.012640">
						<ele>1987</ele>
						<time>2022-01-06T17:19:01Z</time>
					</trkpt>
					<trkpt lat="44.722180" lon="7.012900">
						<ele>1990</ele>
						<time>2022-01-06T17:19:47Z</time>
					</trkpt>
					<trkpt lat="44.721980" lon="7.013030">
						<ele>1991</ele>
						<time>2022-01-06T17:20:16Z</time>
					</trkpt>
					<trkpt lat="44.721740" lon="7.013170">
						<ele>1991</ele>
						<time>2022-01-06T17:20:51Z</time>
					</trkpt>
					<trkpt lat="44.721520" lon="7.013350">
						<ele>1992</ele>
						<time>2022-01-06T17:21:25Z</time>
					</trkpt>
					<trkpt lat="44.721270" lon="7.013540">
						<ele>1993</ele>
						<time>2022-01-06T17:22:03Z</time>
					</trkpt>
					<trkpt lat="44.721010" lon="7.013740">
						<ele>1994</ele>
						<time>2022-01-06T17:22:42Z</time>
					</trkpt>
					<trkpt lat="44.720750" lon="7.013940">
						<ele>1995</ele>
						<time>2022-01-06T17:23:22Z</time>
					</trkpt>
					<trkpt lat="44.720500" lon="7.014160">
						<ele>1995</ele>
						<time>2022-01-06T17:24:01Z</time>
					</trkpt>
					<trkpt lat="44.720280" lon="7.014360">
						<ele>1996</ele>
						<time>2022-01-06T17:24:36Z</time>
					</trkpt>
					<trkpt lat="44.719980" lon="7.014510">
						<ele>1996</ele>
						<time>2022-01-06T17:25:19Z</time>
					</trkpt>
					<trkpt lat="44.719670" lon="7.014670">
						<ele>2000</ele>
						<time>2022-01-06T17:26:03Z</time>
					</trkpt>
					<trkpt lat="44.719420" lon="7.014880">
						<ele>1999</ele>
						<time>2022-01-06T17:26:42Z</time>
					</trkpt>
					<trkpt lat="44.719220" lon="7.015140">
						<ele>1998</ele>
						<time>2022-01-06T17:27:18Z</time>
					</trkpt>
					<trkpt lat="44.719060" lon="7.015460">
						<ele>2001</ele>
						<time>2022-01-06T17:27:55Z</time>
					</trkpt>
					<trkpt lat="44.718880" lon="7.015760">
						<ele>2001</ele>
						<time>2022-01-06T17:28:32Z</time>
					</trkpt>
					<trkpt lat="44.718650" lon="7.016000">
						<ele>2002</ele>
						<time>2022-01-06T17:29:11Z</time>
					</trkpt>
					<trkpt lat="44.718380" lon="7.016200">
						<ele>2001</ele>
						<time>2022-01-06T17:29:51Z</time>
					</trkpt>
					<trkpt lat="44.718160" lon="7.016510">
						<ele>2003</ele>
						<time>2022-01-06T17:30:33Z</time>
					</trkpt>
					<trkpt lat="44.717960" lon="7.016830">
						<ele>2005</ele>
						<time>2022-01-06T17:31:13Z</time>
					</trkpt>
					<trkpt lat="44.717760" lon="7.017060">
						<ele>2007</ele>
						<time>2022-01-06T17:31:48Z</time>
					</trkpt>
					<trkpt lat="44.717590" lon="7.017150">
						<ele>2008</ele>
						<time>2022-01-06T17:32:12Z</time>
					</trkpt>
					<trkpt lat="44.717390" lon="7.017410">
						<ele>2010</ele>
						<time>2022-01-06T17:32:48Z</time>
					</trkpt>
					<trkpt lat="44.717190" lon="7.017670">
						<ele>2011</ele>
						<time>2022-01-06T17:33:25Z</time>
					</trkpt>
					<trkpt lat="44.717050" lon="7.017810">
						<ele>2011</ele>
						<time>2022-01-06T17:33:48Z</time>
					</trkpt>
					<trkpt lat="44.716930" lon="7.018050">
						<ele>2011</ele>
						<time>2022-01-06T17:34:15Z</time>
					</trkpt>
					<trkpt lat="44.716840" lon="7.018320">
						<ele>2011</ele>
						<time>2022-01-06T17:34:44Z</time>
					</trkpt>
					<trkpt lat="44.716740" lon="7.018600">
						<ele>2012</ele>
						<time>2022-01-06T17:35:13Z</time>
					</trkpt>
					<trkpt lat="44.716610" lon="7.018870">
						<ele>2014</ele>
						<time>2022-01-06T17:35:44Z</time>
					</trkpt>
					<trkpt lat="44.716470" lon="7.019150">
						<ele>2015</ele>
						<time>2022-01-06T17:36:17Z</time>
					</trkpt>
					<trkpt lat="44.716320" lon="7.019410">
						<ele>2015</ele>
						<time>2022-01-06T17:36:49Z</time>
					</trkpt>
					<trkpt lat="44.716130" lon="7.019660">
						<ele>2015</ele>
						<time>2022-01-06T17:37:23Z</time>
					</trkpt>
					<trkpt lat="44.715940" lon="7.019920">
						<ele>2014</ele>
						<time>2022-01-06T17:37:59Z</time>
					</trkpt>
					<trkpt lat="44.715890" lon="7.020180">
						<ele>2018</ele>
						<time>2022-01-06T17:38:24Z</time>
					</trkpt>
					<trkpt lat="44.715800" lon="7.020440">
						<ele>2024</ele>
						<time>2022-01-06T17:38:52Z</time>
					</trkpt>
					<trkpt lat="44.715620" lon="7.020630">
						<ele>2026</ele>
						<time>2022-01-06T17:39:22Z</time>
					</trkpt>
					<trkpt lat="44.715370" lon="7.020790">
						<ele>2023</ele>
						<time>2022-01-06T17:39:58Z</time>
					</trkpt>
					<trkpt lat="44.715070" lon="7.020930">
						<ele>2018</ele>
						<time>2022-01-06T17:40:40Z</time>
					</trkpt>
					<trkpt lat="44.714800" lon="7.021120">
						<ele>2021</ele>
						<time>2022-01-06T17:41:21Z</time>
					</trkpt>
					<trkpt lat="44.714610" lon="7.021410">
						<ele>2024</ele>
						<time>2022-01-06T17:41:58Z</time>
					</trkpt>
					<trkpt lat="44.714410" lon="7.021700">
						<ele>2025</ele>
						<time>2022-01-06T17:42:36Z</time>
					</trkpt>
					<trkpt lat="44.714140" lon="7.021870">
						<ele>2024</ele>
						<time>2022-01-06T17:43:16Z</time>
					</trkpt>
					<trkpt lat="44.713790" lon="7.021970">
						<ele>2025</ele>
						<time>2022-01-06T17:44:04Z</time>
					</trkpt>
					<trkpt lat="44.713430" lon="7.022070">
						<ele>2024</ele>
						<time>2022-01-06T17:44:53Z</time>
					</trkpt>
					<trkpt lat="44.713170" lon="7.022060">
						<ele>2023</ele>
						<time>2022-01-06T17:45:27Z</time>
					</trkpt>
					<trkpt lat="44.713010" lon="7.022150">
						<ele>2023</ele>
						<time>2022-01-06T17:45:50Z</time>
					</trkpt>
					<trkpt lat="44.712870" lon="7.022280">
						<ele>2023</ele>
						<time>2022-01-06T17:46:13Z</time>
					</trkpt>
					<trkpt lat="44.712640" lon="7.022850">
						<ele>2027</ele>
						<time>2022-01-06T17:47:15Z</time>
					</trkpt>
					<trkpt lat="44.712430" lon="7.023280">
						<ele>2030</ele>
						<time>2022-01-06T17:48:04Z</time>
					</trkpt>
					<trkpt lat="44.712190" lon="7.023740">
						<ele>2034</ele>
						<time>2022-01-06T17:48:58Z</time>
					</trkpt>
					<trkpt lat="44.712010" lon="7.024170">
						<ele>2035</ele>
						<time>2022-01-06T17:49:46Z</time>
					</trkpt>
					<trkpt lat="44.711930" lon="7.024570">
						<ele>2038</ele>
						<time>2022-01-06T17:50:25Z</time>
					</trkpt>
					<trkpt lat="44.711820" lon="7.024950">
						<ele>2038</ele>
						<time>2022-01-06T17:51:04Z</time>
					</trkpt>
					<trkpt lat="44.711600" lon="7.025280">
						<ele>2039</ele>
						<time>2022-01-06T17:51:47Z</time>
					</trkpt>
					<trkpt lat="44.711330" lon="7.025520">
						<ele>2042</ele>
						<time>2022-01-06T17:52:30Z</time>
					</trkpt>
					<trkpt lat="44.711070" lon="7.025840">
						<ele>2043</ele>
						<time>2022-01-06T17:53:16Z</time>
					</trkpt>
					<trkpt lat="44.710920" lon="7.026010">
						<ele>2047</ele>
						<time>2022-01-06T17:53:41Z</time>
					</trkpt>
					<trkpt lat="44.711070" lon="7.025840">
						<ele>2043</ele>
						<time>2022-01-06T17:54:07Z</time>
					</trkpt>
					<trkpt lat="44.711330" lon="7.025520">
						<ele>2042</ele>
						<time>2022-01-06T17:54:53Z</time>
					</trkpt>
					<trkpt lat="44.711600" lon="7.025280">
						<ele>2039</ele>
						<time>2022-01-06T17:55:36Z</time>
					</trkpt>
					<trkpt lat="44.711820" lon="7.024950">
						<ele>2038</ele>
						<time>2022-01-06T17:56:19Z</time>
					</trkpt>
					<trkpt lat="44.711930" lon="7.024570">
						<ele>2038</ele>
						<time>2022-01-06T17:56:58Z</time>
					</trkpt>
					<trkpt lat="44.712010" lon="7.024170">
						<ele>2035</ele>
						<time>2022-01-06T17:57:37Z</time>
					</trkpt>
					<trkpt lat="44.712190" lon="7.023740">
						<ele>2034</ele>
						<time>2022-01-06T17:58:24Z</time>
					</trkpt>
					<trkpt lat="44.712430" lon="7.023280">
						<ele>2030</ele>
						<time>2022-01-06T17:59:18Z</time>
					</trkpt>
					<trkpt lat="44.712640" lon="7.022850">
						<ele>2027</ele>
						<time>2022-01-06T18:00:08Z</time>
					</trkpt>
					<trkpt lat="44.712870" lon="7.022280">
						<ele>2023</ele>
						<time>2022-01-06T18:01:10Z</time>
					</trkpt>
					<trkpt lat="44.713010" lon="7.022150">
						<ele>2023</ele>
						<time>2022-01-06T18:01:32Z</time>
					</trkpt>
					<trkpt lat="44.713170" lon="7.022060">
						<ele>2023</ele>
						<time>2022-01-06T18:01:55Z</time>
					</trkpt>
					<trkpt lat="44.713430" lon="7.022070">
						<ele>2024</ele>
						<time>2022-01-06T18:02:30Z</time>
					</trkpt>
					<trkpt lat="44.713790" lon="7.021970">
						<ele>2025</ele>
						<time>2022-01-06T18:03:19Z</time>
					</trkpt>
					<trkpt lat="44.714140" lon="7.021870">
						<ele>2024</ele>
						<time>2022-01-06T18:04:07Z</time>
					</trkpt>
					<trkpt lat="44.714410" lon="7.021700">
						<ele>2025</ele>
						<time>2022-01-06T18:04:46Z</time>
					</trkpt>
					<trkpt lat="44.714610" lon="7.021410">
						<ele>2024</ele>
						<time>2022-01-06T18:05:25Z</time>
					</trkpt>
					<trkpt lat="44.714800" lon="7.021120">
						<ele>2021</ele>
						<time>2022-01-06T18:06:02Z</time>
					</trkpt>
					<trkpt lat="44.715070" lon="7.020930">
						<ele>2018</ele>
						<time>2022-01-06T18:06:42Z</time>
					</trkpt>
					<trkpt lat="44.715370" lon="7.020790">
						<ele>2023</ele>
						<time>2022-01-06T18:07:24Z</time>
					</trkpt>
					<trkpt lat="44.715620" lon="7.020630">
						<ele>2026</ele>
						<time>2022-01-06T18:08:01Z</time>
					</trkpt>
					<trkpt lat="44.715800" lon="7.020440">
						<ele>2024</ele>
						<time>2022-01-06T18:08:31Z</time>
					</trkpt>
					<trkpt lat="44.715890" lon="7.020180">
						<ele>2018</ele>
						<time>2022-01-06T18:08:59Z</time>
					</trkpt>
					<trkpt lat="44.715940" lon="7.019920">
						<ele>2014</ele>
						<time>2022-01-06T18:09:24Z</time>
					</trkpt>
					<trkpt lat="44.716130" lon="7.019660">
						<ele>2015</ele>
						<time>2022-01-06T18:09:59Z</time>
					</trkpt>
					<trkpt lat="44.716320" lon="7.019410">
						<ele>2015</ele>
						<time>2022-01-06T18:10:34Z</time>
					</trkpt>
					<trkpt lat="44.716470" lon="7.019150">
						<ele>2015</ele>
						<time>2022-01-06T18:11:06Z</time>
					</trkpt>
					<trkpt lat="44.716610" lon="7.018870">
						<ele>2014</ele>
						<time>2022-01-06T18:11:38Z</time>
					</trkpt>
					<trkpt lat="44.716740" lon="7.018600">
						<ele>2012</ele>
						<time>2022-01-06T18:12:09Z</time>
					</trkpt>
					<trkpt lat="44.716840" lon="7.018320">
						<ele>2011</ele>
						<time>2022-01-06T18:12:39Z</time>
					</trkpt>
					<trkpt lat="44.716930" lon="7.018050">
						<ele>2011</ele>
						<time>2022-01-06T18:13:07Z</time>
					</trkpt>
					<trkpt lat="44.717050" lon="7.017810">
						<ele>2011</ele>
						<time>2022-01-06T18:13:35Z</time>
					</trkpt>
					<trkpt lat="44.717190" lon="7.017670">
						<ele>2011</ele>
						<time>2022-01-06T18:13:58Z</time>
					</trkpt>
					<trkpt lat="44.717390" lon="7.017410">
						<ele>2010</ele>
						<time>2022-01-06T18:14:34Z</time>
					</trkpt>
					<trkpt lat="44.717590" lon="7.017150">
						<ele>2008</ele>
						<time>2022-01-06T18:15:11Z</time>
					</trkpt>
					<trkpt lat="44.717760" lon="7.017060">
						<ele>2007</ele>
						<time>2022-01-06T18:15:35Z</time>
					</trkpt>
					<trkpt lat="44.717960" lon="7.016830">
						<ele>2005</ele>
						<time>2022-01-06T18:16:09Z</time>
					</trkpt>
					<trkpt lat="44.718160" lon="7.016510">
						<ele>2003</ele>
						<time>2022-01-06T18:16:50Z</time>
					</trkpt>
					<trkpt lat="44.718380" lon="7.016200">
						<ele>2001</ele>
						<time>2022-01-06T18:17:31Z</time>
					</trkpt>
					<trkpt lat="44.718650" lon="7.016000">
						<ele>2002</ele>
						<time>2022-01-06T18:18:12Z</time>
					</trkpt>
					<trkpt lat="44.718880" lon="7.015760">
						<ele>2001</ele>
						<time>2022-01-06T18:18:50Z</time>
					</trkpt>
					<trkpt lat="44.719060" lon="7.015460">
						<ele>2001</ele>
						<time>2022-01-06T18:19:28Z</time>
					</trkpt>
					<trkpt lat="44.719220" lon="7.015140">
						<ele>1998</ele>
						<time>2022-01-06T18:20:05Z</time>
					</trkpt>
					<trkpt lat="44.719420" lon="7.014880">
						<ele>1999</ele>
						<time>2022-01-06T18:20:41Z</time>
					</trkpt>
					<trkpt lat="44.719670" lon="7.014670">
						<ele>2000</ele>
						<time>2022-01-06T18:21:20Z</time>
					</trkpt>
					<trkpt lat="44.719980" lon="7.014510">
						<ele>1996</ele>
						<time>2022-01-06T18:22:04Z</time>
					</trkpt>
					<trkpt lat="44.720280" lon="7.014360">
						<ele>1996</ele>
						<time>2022-01-06T18:22:46Z</time>
					</trkpt>
					<trkpt lat="44.720500" lon="7.014160">
						<ele>1995</ele>
						<time>2022-01-06T18:23:21Z</time>
					</trkpt>
					<trkpt lat="44.720750" lon="7.013940">
						<ele>1995</ele>
						<time>2022-01-06T18:24:01Z</time>
					</trkpt>
					<trkpt lat="44.721010" lon="7.013740">
						<ele>1994</ele>
						<time>2022-01-06T18:24:40Z</time>
					</trkpt>
					<trkpt lat="44.721270" lon="7.013540">
						<ele>1993</ele>
						<time>2022-01-06T18:25:20Z</time>
					</trkpt>
					<trkpt lat="44.721520" lon="7.013350">
						<ele>1992</ele>
						<time>2022-01-06T18:25:58Z</time>
					</trkpt>
					<trkpt lat="44.721740" lon="7.013170">
						<ele>1991</ele>
						<time>2022-01-06T18:26:32Z</time>
					</trkpt>
					<trkpt lat="44.721980" lon="7.013030">
						<ele>1991</ele>
						<time>2022-01-06T18:27:06Z</time>
					</trkpt>
					<trkpt lat="44.722180" lon="7.012900">
						<ele>1990</ele>
						<time>2022-01-06T18:27:36Z</time>
					</trkpt>
					<trkpt lat="44.722470" lon="7.012640">
						<ele>1987</ele>
						<time>2022-01-06T18:28:22Z</time>
					</trkpt>
					<trkpt lat="44.722760" lon="7.012360">
						<ele>1988</ele>
						<time>2022-01-06T18:29:09Z</time>
					</trkpt>
					<trkpt lat="44.723000" lon="7.012060">
						<ele>1986</ele>
						<time>2022-01-06T18:29:51Z</time>
					</trkpt>
					<trkpt lat="44.723230" lon="7.011870">
						<ele>1985</ele>
						<time>2022-01-06T18:30:27Z</time>
					</trkpt>
					<trkpt lat="44.723400" lon="7.011730">
						<ele>1986</ele>
						<time>2022-01-06T18:30:53Z</time>
					</trkpt>
					<trkpt lat="44.723540" lon="7.011610">
						<ele>1989</ele>
						<time>2022-01-06T18:31:15Z</time>
					</trkpt>
					<trkpt lat="44.723620" lon="7.011340">
						<ele>1988</ele>
						<time>2022-01-06T18:31:43Z</time>
					</trkpt>
					<trkpt lat="44.723710" lon="7.011080">
						<ele>1986</ele>
						<time>2022-01-06T18:32:10Z</time>
					</trkpt>
					<trkpt lat="44.723830" lon="7.010800">
						<ele>1985</ele>
						<time>2022-01-06T18:32:41Z</time>
					</trkpt>
					<trkpt lat="44.723910" lon="7.010520">
						<ele>1985</ele>
						<time>2022-01-06T18:33:10Z</time>
					</trkpt>
					<trkpt lat="44.724000" lon="7.010240">
						<ele>1984</ele>
						<time>2022-01-06T18:33:39Z</time>
					</trkpt>
					<trkpt lat="44.724120" lon="7.009950">
						<ele>1982</ele>
						<time>2022-01-06T18:34:11Z</time>
					</trkpt>
					<trkpt lat="44.724250" lon="7.009670">
						<ele>1980</ele>
						<time>2022-01-06T18:34:43Z</time>
					</trkpt>
					<trkpt lat="44.724330" lon="7.009470">
						<ele>1980</ele>
						<time>2022-01-06T18:35:04Z</time>
					</trkpt>
					<trkpt lat="44.724450" lon="7.009170">
						<ele>1978</ele>
						<time>2022-01-06T18:35:37Z</time>
					</trkpt>
					<trkpt lat="44.724610" lon="7.008930">
						<ele>1980</ele>
						<time>2022-01-06T18:36:08Z</time>
					</trkpt>
					<trkpt lat="44.724760" lon="7.008710">
						<ele>1981</ele>
						<time>2022-01-06T18:36:37Z</time>
					</trkpt>
					<trkpt lat="44.724780" lon="7.008310">
						<ele>1976</ele>
						<time>2022-01-06T18:37:15Z</time>
					</trkpt>
					<trkpt lat="44.724810" lon="7.007920">
						<ele>1973</ele>
						<time>2022-01-06T18:37:52Z</time>
					</trkpt>
					<trkpt lat="44.724940" lon="7.007850">
						<ele>1970</ele>
						<time>2022-01-06T18:38:11Z</time>
					</trkpt>
					<trkpt lat="44.725070" lon="7.007810">
						<ele>1970</ele>
						<time>2022-01-06T18:38:29Z</time>
					</trkpt>
					<trkpt lat="44.725210" lon="7.007590">
						<ele>1969</ele>
						<time>2022-01-06T18:38:57Z</time>
					</trkpt>
					<trkpt lat="44.725340" lon="7.007390">
						<ele>1968</ele>
						<time>2022-01-06T18:39:22Z</time>
					</trkpt>
					<trkpt lat="44.725470" lon="7.007240">
						<ele>1967</ele>
						<time>2022-01-06T18:39:45Z</time>
					</trkpt>
					<trkpt lat="44.725620" lon="7.007180">
						<ele>1968</ele>
						<time>2022-01-06T18:40:06Z</time>
					</trkpt>
					<trkpt lat="44.725770" lon="7.007160">
						<ele>1970</ele>
						<time>2022-01-06T18:40:26Z</time>
					</trkpt>
					<trkpt lat="44.725900" lon="7.007210">
						<ele>1974</ele>
						<time>2022-01-06T18:40:44Z</time>
					</trkpt>
					<trkpt lat="44.726000" lon="7.007230">
						<ele>1976</ele>
						<time>2022-01-06T18:40:57Z</time>
					</trkpt>
					<trkpt lat="44.726070" lon="7.007130">
						<ele>1974</ele>
						<time>2022-01-06T18:41:10Z</time>
					</trkpt>
					<trkpt lat="44.726170" lon="7.006710">
						<ele>1964</ele>
						<time>2022-01-06T18:41:52Z</time>
					</trkpt>
					<trkpt lat="44.726280" lon="7.006440">
						<ele>1958</ele>
						<time>2022-01-06T18:42:22Z</time>
					</trkpt>
					<trkpt lat="44.726460" lon="7.006280">
						<ele>1957</ele>
						<time>2022-01-06T18:42:50Z</time>
					</trkpt>
					<trkpt lat="44.726680" lon="7.006270">
						<ele>1959</ele>
						<time>2022-01-06T18:43:20Z</time>
					</trkpt>
					<trkpt lat="44.726860" lon="7.006360">
						<ele>1965</ele>
						<time>2022-01-06T18:43:45Z</time>
					</trkpt>
					<trkpt lat="44.727030" lon="7.006260">
						<ele>1964</ele>
						<time>2022-01-06T18:44:10Z</time>
					</trkpt>
					<trkpt lat="44.727250" lon="7.006070">
						<ele>1961</ele>
						<time>2022-01-06T18:44:44Z</time>
					</trkpt>
					<trkpt lat="44.727450" lon="7.005890">
						<ele>1959</ele>
						<time>2022-01-06T18:45:16Z</time>
					</trkpt>
					<trkpt lat="44.727610" lon="7.005660">
						<ele>1957</ele>
						<time>2022-01-06T18:45:46Z</time>
					</trkpt>
					<trkpt lat="44.727790" lon="7.005440">
						<ele>1957</ele>
						<time>2022-01-06T18:46:18Z</time>
					</trkpt>
					<trkpt lat="44.727970" lon="7.005240">
						<ele>1957</ele>
						<time>2022-01-06T18:46:49Z</time>
					</trkpt>
					<trkpt lat="44.728130" lon="7.005030">
						<ele>1955</ele>
						<time>2022-01-06T18:47:18Z</time>
					</trkpt>
					<trkpt lat="44.728240" lon="7.004810">
						<ele>1951</ele>
						<time>2022-01-06T18:47:44Z</time>
					</trkpt>
					<trkpt lat="44.728430" lon="7.004530">
						<ele>1947</ele>
						<time>2022-01-06T18:48:20Z</time>
					</trkpt>
					<trkpt lat="44.728820" lon="7.004060">
						<ele>1943</ele>
						<time>2022-01-06T18:49:29Z</time>
					</trkpt>
					<trkpt lat="44.729160" lon="7.003540">
						<ele>1935</ele>
						<time>2022-01-06T18:50:36Z</time>
					</trkpt>
					<trkpt lat="44.729140" lon="7.003380">
						<ele>1929</ele>
						<time>2022-01-06T18:50:51Z</time>
					</trkpt>
					<trkpt lat="44.729030" lon="7.003080">
						<ele>1922</ele>
						<time>2022-01-06T18:51:23Z</time>
					</trkpt>
					<trkpt lat="44.729040" lon="7.002920">
						<ele>1919</ele>
						<time>2022-01-06T18:51:38Z</time>
					</trkpt>
					<trkpt lat="44.729150" lon="7.002610">
						<ele>1913</ele>
						<time>2022-01-06T18:52:11Z</time>
					</trkpt>
					<trkpt lat="44.729300" lon="7.002360">
						<ele>1913</ele>
						<time>2022-01-06T18:52:42Z</time>
					</trkpt>
					<trkpt lat="44.729250" lon="7.002260">
						<ele>1912</ele>
						<time>2022-01-06T18:52:54Z</time>
					</trkpt>
					<trkpt lat="44.729380" lon="7.001980">
						<ele>1913</ele>
						<time>2022-01-06T18:53:26Z</time>
					</trkpt>
					<trkpt lat="44.729510" lon="7.001790">
						<ele>1912</ele>
						<time>2022-01-06T18:53:51Z</time>
					</trkpt>
					<trkpt lat="44.729740" lon="7.001690">
						<ele>1910</ele>
						<time>2022-01-06T18:54:23Z</time>
					</trkpt>
					<trkpt lat="44.729970" lon="7.001630">
						<ele>1909</ele>
						<time>2022-01-06T18:54:54Z</time>
					</trkpt>
					<trkpt lat="44.729850" lon="7.001300">
						<ele>1908</ele>
						<time>2022-01-06T18:55:29Z</time>
					</trkpt>
					<trkpt lat="44.729930" lon="7.001110">
						<ele>1906</ele>
						<time>2022-01-06T18:55:50Z</time>
					</trkpt>
					<trkpt lat="44.730090" lon="7.001050">
						<ele>1904</ele>
						<time>2022-01-06T18:56:12Z</time>
					</trkpt>
					<trkpt lat="44.730240" lon="7.001020">
						<ele>1902</ele>
						<time>2022-01-06T18:56:32Z</time>
					</trkpt>
					<trkpt lat="44.730380" lon="7.000800">
						<ele>1899</ele>
						<time>2022-01-06T18:57:00Z</time>
					</trkpt>
					<trkpt lat="44.730470" lon="7.000350">
						<ele>1901</ele>
						<time>2022-01-06T18:57:45Z</time>
					</trkpt>
					<trkpt lat="44.730550" lon="7.000220">
						<ele>1901</ele>
						<time>2022-01-06T18:58:01Z</time>
					</trkpt>
					<trkpt lat="44.730730" lon="7.000040">
						<ele>1899</ele>
						<time>2022-01-06T18:58:30Z</time>
					</trkpt>
					<trkpt lat="44.730970" lon="6.999890">
						<ele>1897</ele>
						<time>2022-01-06T18:59:05Z</time>
					</trkpt>
					<trkpt lat="44.731150" lon="6.999720">
						<ele>1898</ele>
						<time>2022-01-06T18:59:34Z</time>
					</trkpt>
					<trkpt lat="44.731260" lon="6.999730">
						<ele>1897</ele>
						<time>2022-01-06T18:59:49Z</time>
					</trkpt>
					<trkpt lat="44.731500" lon="6.999570">
						<ele>1897</ele>
						<time>2022-01-06T19:00:25Z</time>
					</trkpt>
					<trkpt lat="44.731700" lon="6.999320">
						<ele>1899</ele>
						<time>2022-01-06T19:01:00Z</time>
					</trkpt>
					<trkpt lat="44.731810" lon="6.999080">
						<ele>1900</ele>
						<time>2022-01-06T19:01:27Z</time>
					</trkpt>
					<trkpt lat="44.731990" lon="6.999060">
						<ele>1896</ele>
						<time>2022-01-06T19:01:51Z</time>
					</trkpt>
					<trkpt lat="44.732150" lon="6.999100">
						<ele>1892</ele>
						<time>2022-01-06T19:02:13Z</time>
					</trkpt>
					<trkpt lat="44.732340" lon="6.999160">
						<ele>1887</ele>
						<time>2022-01-06T19:02:39Z</time>
					</trkpt>
					<trkpt lat="44.732490" lon="6.999050">
						<ele>1885</ele>
						<time>2022-01-06T19:03:02Z</time>
					</trkpt>
					<trkpt lat="44.732480" lon="6.998780">
						<ele>1889</ele>
						<time>2022-01-06T19:03:27Z</time>
					</trkpt>
					<trkpt lat="44.732630" lon="6.998630">
						<ele>1886</ele>
						<time>2022-01-06T19:03:52Z</time>
					</trkpt>
					<trkpt lat="44.732780" lon="6.998700">
						<ele>1880</ele>
						<time>2022-01-06T19:04:13Z</time>
					</trkpt>
					<trkpt lat="44.732960" lon="6.998890">
						<ele>1870</ele>
						<time>2022-01-06T19:04:43Z</time>
					</trkpt>
					<trkpt lat="44.733170" lon="6.998940">
						<ele>1861</ele>
						<time>2022-01-06T19:05:11Z</time>
					</trkpt>
					<trkpt lat="44.733320" lon="6.998760">
						<ele>1860</ele>
						<time>2022-01-06T19:05:38Z</time>
					</trkpt>
					<trkpt lat="44.733420" lon="6.998540">
						<ele>1860</ele>
						<time>2022-01-06T19:06:02Z</time>
					</trkpt>
					<trkpt lat="44.733580" lon="6.998360">
						<ele>1855</ele>
						<time>2022-01-06T19:06:30Z</time>
					</trkpt>
					<trkpt lat="44.733720" lon="6.998080">
						<ele>1856</ele>
						<time>2022-01-06T19:07:02Z</time>
					</trkpt>
					<trkpt lat="44.733960" lon="6.997890">
						<ele>1846</ele>
						<time>2022-01-06T19:07:39Z</time>
					</trkpt>
					<trkpt lat="44.734240" lon="6.997800">
						<ele>1832</ele>
						<time>2022-01-06T19:08:17Z</time>
					</trkpt>
					<trkpt lat="44.734600" lon="6.997850">
						<ele>1820</ele>
						<time>2022-01-06T19:09:06Z</time>
					</trkpt>
					<trkpt lat="44.734880" lon="6.997790">
						<ele>1812</ele>
						<time>2022-01-06T19:09:43Z</time>
					</trkpt>
					<trkpt lat="44.734730" lon="6.998030">
						<ele>1814</ele>
						<time>2022-01-06T19:10:14Z</time>
					</trkpt>
					<trkpt lat="44.734840" lon="6.998120">
						<ele>1810</ele>
						<time>2022-01-06T19:10:31Z</time>
					</trkpt>
					<trkpt lat="44.734880" lon="6.998270">
						<ele>1807</ele>
						<time>2022-01-06T19:10:46Z</time>
					</trkpt>
					<trkpt lat="44.734910" lon="6.998430">
						<ele>1806</ele>
						<time>2022-01-06T19:11:02Z</time>
					</trkpt>
					<trkpt lat="44.735070" lon="6.998700">
						<ele>1806</ele>
						<time>2022-01-06T19:11:35Z</time>
					</trkpt>
					<trkpt lat="44.735260" lon="6.998830">
						<ele>1808</ele>
						<time>2022-01-06T19:12:03Z</time>
					</trkpt>
					<trkpt lat="44.735440" lon="6.998850">
						<ele>1808</ele>
						<time>2022-01-06T19:12:27Z</time>
					</trkpt>
					<trkpt lat="44.735640" lon="6.998780">
						<ele>1808</ele>
						<time>2022-01-06T19:12:55Z</time>
					</trkpt>
					<trkpt lat="44.735810" lon="6.998770">
						<ele>1808</ele>
						<time>2022-01-06T19:13:17Z</time>
					</trkpt>
					<trkpt lat="44.735860" lon="6.998970">
						<ele>1812</ele>
						<time>2022-01-06T19:13:37Z</time>
					</trkpt>
					<trkpt lat="44.735900" lon="6.999160">
						<ele>1816</ele>
						<time>2022-01-06T19:13:56Z</time>
					</trkpt>
					<trkpt lat="44.736030" lon="6.999170">
						<ele>1819</ele>
						<time>2022-01-06T19:14:14Z</time>
					</trkpt>
					<trkpt lat="44.736120" lon="6.998870">
						<ele>1815</ele>
						<time>2022-01-06T19:14:44Z</time>
					</trkpt>
					<trkpt lat="44.736260" lon="6.998520">
						<ele>1810</ele>
						<time>2022-01-06T19:15:23Z</time>
					</trkpt>
					<trkpt lat="44.736450" lon="6.998330">
						<ele>1808</ele>
						<time>2022-01-06T19:15:54Z</time>
					</trkpt>
					<trkpt lat="44.736670" lon="6.998160">
						<ele>1807</ele>
						<time>2022-01-06T19:16:27Z</time>
					</trkpt>
					<trkpt lat="44.736790" lon="6.997920">
						<ele>1805</ele>
						<time>2022-01-06T19:16:55Z</time>
					</trkpt>
					<trkpt lat="44.736950" lon="6.997490">
						<ele>1798</ele>
						<time>2022-01-06T19:17:41Z</time>
					</trkpt>
					<trkpt lat="44.737260" lon="6.997270">
						<ele>1797</ele>
						<time>2022-01-06T19:18:27Z</time>
					</trkpt>
					<trkpt lat="44.737320" lon="6.996970">
						<ele>1793</ele>
						<time>2022-01-06T19:18:57Z</time>
					</trkpt>
					<trkpt lat="44.737500" lon="6.996820">
						<ele>1791</ele>
						<time>2022-01-06T19:19:25Z</time>
					</trkpt>
					<trkpt lat="44.737680" lon="6.996560">
						<ele>1791</ele>
						<time>2022-01-06T19:19:59Z</time>
					</trkpt>
					<trkpt lat="44.737900" lon="6.996350">
						<ele>1791</ele>
						<time>2022-01-06T19:20:35Z</time>
					</trkpt>
					<trkpt lat="44.738110" lon="6.996200">
						<ele>1791</ele>
						<time>2022-01-06T19:21:06Z</time>
					</trkpt>
					<trkpt lat="44.738310" lon="6.996080">
						<ele>1789</ele>
						<time>2022-01-06T19:21:35Z</time>
					</trkpt>
					<trkpt lat="44.738500" lon="6.995800">
						<ele>1787</ele>
						<time>2022-01-06T19:22:12Z</time>
					</trkpt>
					<trkpt lat="44.738830" lon="6.995450">
						<ele>1789</ele>
						<time>2022-01-06T19:23:07Z</time>
					</trkpt>
					<trkpt lat="44.739290" lon="6.994990">
						<ele>1780</ele>
						<time>2022-01-06T19:24:22Z</time>
					</trkpt>
					<trkpt lat="44.739660" lon="6.994660">
						<ele>1781</ele>
						<time>2022-01-06T19:25:21Z</time>
					</trkpt>
					<trkpt lat="44.740060" lon="6.994490">
						<ele>1777</ele>
						<time>2022-01-06T19:26:16Z</time>
					</trkpt>
					<trkpt lat="44.740550" lon="6.994460">
						<ele>1780</ele>
						<time>2022-01-06T19:27:22Z</time>
					</trkpt>
					<trkpt lat="44.741080" lon="6.994340">
						<ele>1778</ele>
						<time>2022-01-06T19:28:34Z</time>
					</trkpt>
					<trkpt lat="44.741560" lon="6.994250">
						<ele>1774</ele>
						<time>2022-01-06T19:29:38Z</time>
					</trkpt>
					<trkpt lat="44.742020" lon="6.994270">
						<ele>1773</ele>
						<time>2022-01-06T19:30:40Z</time>
					</trkpt>
					<trkpt lat="44.742470" lon="6.994290">
						<ele>1772</ele>
						<time>2022-01-06T19:31:40Z</time>
					</trkpt>
					<trkpt lat="44.743020" lon="6.994350">
						<ele>1770</ele>
						<time>2022-01-06T19:32:53Z</time>
					</trkpt>
					<trkpt lat="44.743400" lon="6.994310">
						<ele>1765</ele>
						<time>2022-01-06T19:33:44Z</time>
					</trkpt>
					<trkpt lat="44.743840" lon="6.994340">
						<ele>1764</ele>
						<time>2022-01-06T19:34:43Z</time>
					</trkpt>
					<trkpt lat="44.744270" lon="6.994430">
						<ele>1765</ele>
						<time>2022-01-06T19:35:41Z</time>
					</trkpt>
					<trkpt lat="44.744650" lon="6.994560">
						<ele>1765</ele>
						<time>2022-01-06T19:36:33Z</time>
					</trkpt>
					<trkpt lat="44.745030" lon="6.994720">
						<ele>1763</ele>
						<time>2022-01-06T19:37:26Z</time>
					</trkpt>
					<trkpt lat="44.745350" lon="6.994810">
						<ele>1759</ele>
						<time>2022-01-06T19:38:10Z</time>
					</trkpt>
					<trkpt lat="44.745610" lon="6.994890">
						<ele>1756</ele>
						<time>2022-01-06T19:38:45Z</time>
					</trkpt>
					<trkpt lat="44.745870" lon="6.994980">
						<ele>1753</ele>
						<time>2022-01-06T19:39:21Z</time>
					</trkpt>
					<trkpt lat="44.746170" lon="6.995020">
						<ele>1751</ele>
						<time>2022-01-06T19:40:01Z</time>
					</trkpt>
					<trkpt lat="44.746550" lon="6.995150">
						<ele>1752</ele>
						<time>2022-01-06T19:40:53Z</time>
					</trkpt>
					<trkpt lat="44.746990" lon="6.995340">
						<ele>1750</ele>
						<time>2022-01-06T19:41:55Z</time>
					</trkpt>
					<trkpt lat="44.747390" lon="6.995430">
						<ele>1745</ele>
						<time>2022-01-06T19:42:49Z</time>
					</trkpt>
					<trkpt lat="44.747620" lon="6.995480">
						<ele>1744</ele>
						<time>2022-01-06T19:43:20Z</time>
					</trkpt>
					<trkpt lat="44.747740" lon="6.995370">
						<ele>1741</ele>
						<time>2022-01-06T19:43:39Z</time>
					</trkpt>
					<trkpt lat="44.747860" lon="6.995340">
						<ele>1740</ele>
						<time>2022-01-06T19:43:55Z</time>
					</trkpt>
					<trkpt lat="44.748090" lon="6.995240">
						<ele>1738</ele>
						<time>2022-01-06T19:44:27Z</time>
					</trkpt>
					<trkpt lat="44.748270" lon="6.995160">
						<ele>1736</ele>
						<time>2022-01-06T19:44:52Z</time>
					</trkpt>
					<trkpt lat="44.748510" lon="6.995120">
						<ele>1735</ele>
						<time>2022-01-06T19:45:25Z</time>
					</trkpt>
					<trkpt lat="44.748780" lon="6.995030">
						<ele>1734</ele>
						<time>2022-01-06T19:46:02Z</time>
					</trkpt>
					<trkpt lat="44.749140" lon="6.994930">
						<ele>1734</ele>
						<time>2022-01-06T19:46:51Z</time>
					</trkpt>
					<trkpt lat="44.749510" lon="6.994860">
						<ele>1732</ele>
						<time>2022-01-06T19:47:40Z</time>
					</trkpt>
					<trkpt lat="44.749850" lon="6.994860">
						<ele>1730</ele>
						<time>2022-01-06T19:48:26Z</time>
					</trkpt>
					<trkpt lat="44.750130" lon="6.994930">
						<ele>1730</ele>
						<time>2022-01-06T19:49:04Z</time>
					</trkpt>
					<trkpt lat="44.750350" lon="6.994910">
						<ele>1731</ele>
						<time>2022-01-06T19:49:33Z</time>
					</trkpt>
					<trkpt lat="44.750950" lon="6.994610">
						<ele>1730</ele>
						<time>2022-01-06T19:50:58Z</time>
					</trkpt>
					<trkpt lat="44.751420" lon="6.994400">
						<ele>1729</ele>
						<time>2022-01-06T19:52:04Z</time>
					</trkpt>
					<trkpt lat="44.751770" lon="6.994170">
						<ele>1727</ele>
						<time>2022-01-06T19:52:56Z</time>
					</trkpt>
					<trkpt lat="44.752000" lon="6.993890">
						<ele>1726</ele>
						<time>2022-01-06T19:53:36Z</time>
					</trkpt>
					<trkpt lat="44.752260" lon="6.993680">
						<ele>1725</ele>
						<time>2022-01-06T19:54:16Z</time>
					</trkpt>
					<trkpt lat="44.752590" lon="6.993570">
						<ele>1724</ele>
						<time>2022-01-06T19:55:01Z</time>
					</trkpt>
					<trkpt lat="44.752920" lon="6.993410">
						<ele>1723</ele>
						<time>2022-01-06T19:55:48Z</time>
					</trkpt>
					<trkpt lat="44.753240" lon="6.993230">
						<ele>1723</ele>
						<time>2022-01-06T19:56:34Z</time>
					</trkpt>
					<trkpt lat="44.753510" lon="6.993190">
						<ele>1722</ele>
						<time>2022-01-06T19:57:10Z</time>
					</trkpt>
					<trkpt lat="44.753690" lon="6.993120">
						<ele>1721</ele>
						<time>2022-01-06T19:57:35Z</time>
					</trkpt>
					<trkpt lat="44.753830" lon="6.992970">
						<ele>1719</ele>
						<time>2022-01-06T19:57:59Z</time>
					</trkpt>
					<trkpt lat="44.754120" lon="6.992870">
						<ele>1716</ele>
						<time>2022-01-06T19:58:38Z</time>
					</trkpt>
					<trkpt lat="44.754510" lon="6.992780">
						<ele>1714</ele>
						<time>2022-01-06T19:59:31Z</time>
					</trkpt>
					<trkpt lat="44.754840" lon="6.992660">
						<ele>1711</ele>
						<time>2022-01-06T20:00:17Z</time>
					</trkpt>
					<trkpt lat="44.755170" lon="6.992560">
						<ele>1708</ele>
						<time>2022-01-06T20:01:02Z</time>
					</trkpt>
					<trkpt lat="44.755500" lon="6.992470">
						<ele>1706</ele>
						<time>2022-01-06T20:01:47Z</time>
					</trkpt>
					<trkpt lat="44.755810" lon="6.992370">
						<ele>1705</ele>
						<time>2022-01-06T20:02:29Z</time>
					</trkpt>
					<trkpt lat="44.756150" lon="6.992380">
						<ele>1703</ele>
						<time>2022-01-06T20:03:14Z</time>
					</trkpt>
					<trkpt lat="44.756510" lon="6.992470">
						<ele>1701</ele>
						<time>2022-01-06T20:04:03Z</time>
					</trkpt>
					<trkpt lat="44.756890" lon="6.992550">
						<ele>1700</ele>
						<time>2022-01-06T20:04:54Z</time>
					</trkpt>
					<trkpt lat="44.757270" lon="6.992630">
						<ele>1700</ele>
						<time>2022-01-06T20:05:46Z</time>
					</trkpt>
					<trkpt lat="44.757590" lon="6.992690">
						<ele>1700</ele>
						<time>2022-01-06T20:06:29Z</time>
					</trkpt>
					<trkpt lat="44.757910" lon="6.992750">
						<ele>1699</ele>
						<time>2022-01-06T20:07:12Z</time>
					</trkpt>
					<trkpt lat="44.758200" lon="6.992710">
						<ele>1697</ele>
						<time>2022-01-06T20:07:51Z</time>
					</trkpt>
					</trkseg>
				</trk>
			</gpx>